Huvudsida
METAR-TAF:

METAR-TAF

Flygplatser :

Sandefjords flygplats. Torp

Sandefjords, Norge

latitud: 59-12N, longitud: 010-16E, höjd: 8 m

Aktuellt väderrapport

Denna rapport gjordes för 37 minuter sedan, klockan 18:50 UTC
Vind 8 kt från sydväst
Temperatur 24°C
Fuktighet 44%
Tryck 1018 hPa
Sikt 10 km eller mer
Inga moln under 1 500 m eller inga cumulonimbus

METAR: ENTO 251850Z 23008KT CAVOK 24/11 Q1018

Tid: 21:27 (19:27 UTC)

Väderprognos

Prognos gäller från 25 kl. 18 UTC till 26 kl. 18 UTC
Vind 10 kt från sydväst
Sikt 10 km eller mer
Inga moln under 1 500 m eller inga cumulonimbus
Blir
från 25 kl. 19 UTC till 25 kl. 21 UTC
Vind 5 kt varierande vindriktning
Blir
från 26 kl. 08 UTC till 26 kl. 10 UTC
Vind 10 kt från syd/sydväst

TAF: ENTO 2518/2618 22010KT CAVOK BECMG 2519/2521 VRB05KT BECMG 2608/2610 20010KT

Aktuella väderrapporter och prognoser från 4000 flygplatser (METAR- och TAF-rapporter).

De tillgängliga stationerna syns som gula och röda prickar på kartan.

För musen över prickarna för att se namnen på stationerna.

Klicka sedan för att få väderrapporter och prognoser.

För att ändra kartan: Klicka på de gröna knapparna med ett svart kors på för att zooma in; den gröna knappen med ett streck på för att zooma ut; eller på de gröna pilarna för angränsande kartor.


METAR-TAF: